sensor_id;sensor_type;location;lat;lon;timestamp;temperature;humidity
65707;SHT31;52423;43.512;5.220;2023-08-08T00:00:25;20.27;40.60
65707;SHT31;52423;43.512;5.220;2023-08-08T00:02:50;20.34;40.36
65707;SHT31;52423;43.512;5.220;2023-08-08T00:05:15;20.36;40.19
65707;SHT31;52423;43.512;5.220;2023-08-08T00:07:41;20.36;40.11
65707;SHT31;52423;43.512;5.220;2023-08-08T00:10:07;20.22;40.63
65707;SHT31;52423;43.512;5.220;2023-08-08T00:12:32;20.22;40.83
65707;SHT31;52423;43.512;5.220;2023-08-08T00:14:58;20.14;40.89
65707;SHT31;52423;43.512;5.220;2023-08-08T00:17:23;19.93;41.60
65707;SHT31;52423;43.512;5.220;2023-08-08T00:19:48;19.83;41.64
65707;SHT31;52423;43.512;5.220;2023-08-08T00:22:14;19.52;42.49
65707;SHT31;52423;43.512;5.220;2023-08-08T00:24:39;19.52;42.44
65707;SHT31;52423;43.512;5.220;2023-08-08T00:27:05;19.43;42.58
65707;SHT31;52423;43.512;5.220;2023-08-08T00:29:30;19.48;42.65
65707;SHT31;52423;43.512;5.220;2023-08-08T00:31:56;19.18;43.00
65707;SHT31;52423;43.512;5.220;2023-08-08T00:34:21;19.00;43.66
65707;SHT31;52423;43.512;5.220;2023-08-08T00:36:47;19.28;43.43
65707;SHT31;52423;43.512;5.220;2023-08-08T00:39:12;19.23;43.34
65707;SHT31;52423;43.512;5.220;2023-08-08T00:41:37;18.97;44.23
65707;SHT31;52423;43.512;5.220;2023-08-08T00:44:03;18.93;44.30
65707;SHT31;52423;43.512;5.220;2023-08-08T00:46:28;18.89;44.34
65707;SHT31;52423;43.512;5.220;2023-08-08T00:48:54;18.63;45.59
65707;SHT31;52423;43.512;5.220;2023-08-08T00:51:21;18.69;45.32
65707;SHT31;52423;43.512;5.220;2023-08-08T00:53:47;18.70;45.58
65707;SHT31;52423;43.512;5.220;2023-08-08T00:56:14;18.62;45.61
65707;SHT31;52423;43.512;5.220;2023-08-08T00:58:40;18.45;45.82
65707;SHT31;52423;43.512;5.220;2023-08-08T01:01:05;18.41;46.46
65707;SHT31;52423;43.512;5.220;2023-08-08T01:03:30;18.34;46.55
65707;SHT31;52423;43.512;5.220;2023-08-08T01:06:05;18.22;46.80
65707;SHT31;52423;43.512;5.220;2023-08-08T01:08:39;18.38;46.57
65707;SHT31;52423;43.512;5.220;2023-08-08T01:11:07;18.18;46.68
65707;SHT31;52423;43.512;5.220;2023-08-08T01:13:34;18.25;47.07
65707;SHT31;52423;43.512;5.220;2023-08-08T01:16:02;18.28;47.01
65707;SHT31;52423;43.512;5.220;2023-08-08T01:18:31;18.02;47.06
65707;SHT31;52423;43.512;5.220;2023-08-08T01:20:57;18.24;46.93
65707;SHT31;52423;43.512;5.220;2023-08-08T01:26:07;18.19;47.09
65707;SHT31;52423;43.512;5.220;2023-08-08T01:28:34;18.01;47.60
65707;SHT31;52423;43.512;5.220;2023-08-08T01:31:00;17.88;47.53
65707;SHT31;52423;43.512;5.220;2023-08-08T01:33:25;17.85;47.18
65707;SHT31;52423;43.512;5.220;2023-08-08T01:35:58;18.00;46.81
65707;SHT31;52423;43.512;5.220;2023-08-08T01:38:28;17.93;47.23
65707;SHT31;52423;43.512;5.220;2023-08-08T01:40:56;17.93;47.16
65707;SHT31;52423;43.512;5.220;2023-08-08T01:43:23;17.91;47.17
65707;SHT31;52423;43.512;5.220;2023-08-08T01:45:50;17.90;47.43
65707;SHT31;52423;43.512;5.220;2023-08-08T01:48:16;17.71;48.33
65707;SHT31;52423;43.512;5.220;2023-08-08T01:50:41;17.37;49.55
65707;SHT31;52423;43.512;5.220;2023-08-08T01:53:06;17.37;49.85
65707;SHT31;52423;43.512;5.220;2023-08-08T01:55:32;17.34;50.34
65707;SHT31;52423;43.512;5.220;2023-08-08T01:57:57;17.42;48.82
65707;SHT31;52423;43.512;5.220;2023-08-08T02:00:23;17.37;49.26
65707;SHT31;52423;43.512;5.220;2023-08-08T02:02:48;17.51;48.79
65707;SHT31;52423;43.512;5.220;2023-08-08T02:05:14;17.47;48.73
65707;SHT31;52423;43.512;5.220;2023-08-08T02:07:39;17.32;49.97
65707;SHT31;52423;43.512;5.220;2023-08-08T02:10:05;17.30;49.83
65707;SHT31;52423;43.512;5.220;2023-08-08T02:12:30;17.71;48.76
65707;SHT31;52423;43.512;5.220;2023-08-08T02:14:57;17.77;48.18
65707;SHT31;52423;43.512;5.220;2023-08-08T02:17:22;17.71;47.55
65707;SHT31;52423;43.512;5.220;2023-08-08T02:19:48;17.54;47.72
65707;SHT31;52423;43.512;5.220;2023-08-08T02:22:13;17.33;48.41
65707;SHT31;52423;43.512;5.220;2023-08-08T02:24:39;17.23;48.51
65707;SHT31;52423;43.512;5.220;2023-08-08T02:27:04;17.19;48.94
65707;SHT31;52423;43.512;5.220;2023-08-08T02:29:30;17.06;49.36
65707;SHT31;52423;43.512;5.220;2023-08-08T02:31:55;17.03;49.38
65707;SHT31;52423;43.512;5.220;2023-08-08T02:34:21;17.09;49.10
65707;SHT31;52423;43.512;5.220;2023-08-08T02:36:46;16.98;49.51
65707;SHT31;52423;43.512;5.220;2023-08-08T02:39:12;16.82;49.81
65707;SHT31;52423;43.512;5.220;2023-08-08T02:41:38;16.86;50.32
65707;SHT31;52423;43.512;5.220;2023-08-08T02:44:04;16.89;50.52
65707;SHT31;52423;43.512;5.220;2023-08-08T02:46:29;16.93;50.46
65707;SHT31;52423;43.512;5.220;2023-08-08T02:48:55;17.09;50.08
65707;SHT31;52423;43.512;5.220;2023-08-08T02:51:20;17.15;49.77
65707;SHT31;52423;43.512;5.220;2023-08-08T02:53:45;17.03;49.91
65707;SHT31;52423;43.512;5.220;2023-08-08T02:56:11;16.86;50.22
65707;SHT31;52423;43.512;5.220;2023-08-08T02:58:36;16.65;50.40
65707;SHT31;52423;43.512;5.220;2023-08-08T03:01:02;16.64;50.58
65707;SHT31;52423;43.512;5.220;2023-08-08T03:03:27;16.50;50.95
65707;SHT31;52423;43.512;5.220;2023-08-08T03:05:53;16.54;50.70
65707;SHT31;52423;43.512;5.220;2023-08-08T03:08:19;16.72;50.44
65707;SHT31;52423;43.512;5.220;2023-08-08T03:10:44;16.78;50.33
65707;SHT31;52423;43.512;5.220;2023-08-08T03:13:09;17.09;49.43
65707;SHT31;52423;43.512;5.220;2023-08-08T03:15:35;17.11;49.55
65707;SHT31;52423;43.512;5.220;2023-08-08T03:18:01;17.13;49.60
65707;SHT31;52423;43.512;5.220;2023-08-08T03:20:27;17.13;49.77
65707;SHT31;52423;43.512;5.220;2023-08-08T03:22:52;17.01;50.02
65707;SHT31;52423;43.512;5.220;2023-08-08T03:25:18;16.89;50.41
65707;SHT31;52423;43.512;5.220;2023-08-08T03:27:43;16.86;50.13
65707;SHT31;52423;43.512;5.220;2023-08-08T03:30:09;17.18;49.40
65707;SHT31;52423;43.512;5.220;2023-08-08T03:32:34;16.84;50.11
65707;SHT31;52423;43.512;5.220;2023-08-08T03:35:00;16.93;50.35
65707;SHT31;52423;43.512;5.220;2023-08-08T03:37:25;16.72;50.49
65707;SHT31;52423;43.512;5.220;2023-08-08T03:39:51;16.65;50.70
65707;SHT31;52423;43.512;5.220;2023-08-08T03:42:16;16.54;51.19
65707;SHT31;52423;43.512;5.220;2023-08-08T03:44:42;16.57;50.87
65707;SHT31;52423;43.512;5.220;2023-08-08T03:47:07;16.44;51.49
65707;SHT31;52423;43.512;5.220;2023-08-08T03:49:33;16.34;51.58
65707;SHT31;52423;43.512;5.220;2023-08-08T03:51:58;16.37;51.66
65707;SHT31;52423;43.512;5.220;2023-08-08T03:54:24;16.45;51.46
65707;SHT31;52423;43.512;5.220;2023-08-08T03:56:49;16.38;51.62
65707;SHT31;52423;43.512;5.220;2023-08-08T03:59:14;16.31;52.03
65707;SHT31;52423;43.512;5.220;2023-08-08T04:01:40;16.34;52.00
65707;SHT31;52423;43.512;5.220;2023-08-08T04:04:05;16.34;52.09
65707;SHT31;52423;43.512;5.220;2023-08-08T04:06:31;16.41;51.94
65707;SHT31;52423;43.512;5.220;2023-08-08T04:08:56;16.48;51.66
65707;SHT31;52423;43.512;5.220;2023-08-08T04:11:22;16.62;51.86
65707;SHT31;52423;43.512;5.220;2023-08-08T04:13:47;16.57;51.63
65707;SHT31;52423;43.512;5.220;2023-08-08T04:16:13;16.27;52.59
65707;SHT31;52423;43.512;5.220;2023-08-08T04:18:39;16.06;53.39
65707;SHT31;52423;43.512;5.220;2023-08-08T04:21:04;15.97;53.45
65707;SHT31;52423;43.512;5.220;2023-08-08T04:23:30;15.83;54.31
65707;SHT31;52423;43.512;5.220;2023-08-08T04:25:55;16.09;54.15
65707;SHT31;52423;43.512;5.220;2023-08-08T04:28:20;16.23;53.32
65707;SHT31;52423;43.512;5.220;2023-08-08T04:30:46;16.18;53.28
65707;SHT31;52423;43.512;5.220;2023-08-08T04:33:11;16.10;53.70
65707;SHT31;52423;43.512;5.220;2023-08-08T04:35:37;16.09;54.12
65707;SHT31;52423;43.512;5.220;2023-08-08T04:38:03;16.18;53.68
65707;SHT31;52423;43.512;5.220;2023-08-08T04:40:28;15.94;54.33
65707;SHT31;52423;43.512;5.220;2023-08-08T04:42:54;15.76;55.49
65707;SHT31;52423;43.512;5.220;2023-08-08T04:45:19;15.79;55.60
65707;SHT31;52423;43.512;5.220;2023-08-08T04:47:46;15.93;54.85
65707;SHT31;52423;43.512;5.220;2023-08-08T04:50:12;15.81;55.18
65707;SHT31;52423;43.512;5.220;2023-08-08T04:52:37;15.72;55.28
65707;SHT31;52423;43.512;5.220;2023-08-08T04:55:03;15.75;55.80
65707;SHT31;52423;43.512;5.220;2023-08-08T04:57:28;15.66;55.97
65707;SHT31;52423;43.512;5.220;2023-08-08T04:59:54;15.90;55.27
65707;SHT31;52423;43.512;5.220;2023-08-08T05:02:19;16.00;55.14
65707;SHT31;52423;43.512;5.220;2023-08-08T05:04:44;15.97;55.30
65707;SHT31;52423;43.512;5.220;2023-08-08T05:07:10;16.06;55.06
65707;SHT31;52423;43.512;5.220;2023-08-08T05:09:35;15.86;55.91
65707;SHT31;52423;43.512;5.220;2023-08-08T05:12:01;16.02;55.78
65707;SHT31;52423;43.512;5.220;2023-08-08T05:14:26;16.18;55.04
65707;SHT31;52423;43.512;5.220;2023-08-08T05:16:51;15.97;54.67
65707;SHT31;52423;43.512;5.220;2023-08-08T05:19:17;15.86;54.85
65707;SHT31;52423;43.512;5.220;2023-08-08T05:21:42;15.82;54.67
65707;SHT31;52423;43.512;5.220;2023-08-08T05:24:08;15.87;54.55
65707;SHT31;52423;43.512;5.220;2023-08-08T05:26:33;16.07;54.33
65707;SHT31;52423;43.512;5.220;2023-08-08T05:28:58;16.17;54.21
65707;SHT31;52423;43.512;5.220;2023-08-08T05:31:24;16.35;53.72
65707;SHT31;52423;43.512;5.220;2023-08-08T05:33:49;16.40;53.46
65707;SHT31;52423;43.512;5.220;2023-08-08T05:36:15;16.43;53.14
65707;SHT31;52423;43.512;5.220;2023-08-08T05:38:40;16.55;53.04
65707;SHT31;52423;43.512;5.220;2023-08-08T05:41:08;16.74;52.54
65707;SHT31;52423;43.512;5.220;2023-08-08T05:43:34;16.84;52.42
65707;SHT31;52423;43.512;5.220;2023-08-08T05:45:59;16.92;51.93
65707;SHT31;52423;43.512;5.220;2023-08-08T05:48:24;17.03;51.46
65707;SHT31;52423;43.512;5.220;2023-08-08T05:50:50;17.13;51.59
65707;SHT31;52423;43.512;5.220;2023-08-08T05:53:16;17.22;51.31
65707;SHT31;52423;43.512;5.220;2023-08-08T05:55:41;17.22;51.69
65707;SHT31;52423;43.512;5.220;2023-08-08T05:58:08;17.36;51.64
65707;SHT31;52423;43.512;5.220;2023-08-08T06:00:33;17.56;51.40
65707;SHT31;52423;43.512;5.220;2023-08-08T06:02:59;17.69;50.69
65707;SHT31;52423;43.512;5.220;2023-08-08T06:05:24;17.69;51.08
65707;SHT31;52423;43.512;5.220;2023-08-08T06:07:50;17.91;50.23
65707;SHT31;52423;43.512;5.220;2023-08-08T06:10:15;18.01;49.57
65707;SHT31;52423;43.512;5.220;2023-08-08T06:12:41;18.14;49.10
65707;SHT31;52423;43.512;5.220;2023-08-08T06:15:07;18.19;48.74
65707;SHT31;52423;43.512;5.220;2023-08-08T06:17:32;18.31;48.58
65707;SHT31;52423;43.512;5.220;2023-08-08T06:19:58;18.25;48.37
65707;SHT31;52423;43.512;5.220;2023-08-08T06:22:23;18.19;48.29
65707;SHT31;52423;43.512;5.220;2023-08-08T06:24:49;18.29;48.54
65707;SHT31;52423;43.512;5.220;2023-08-08T06:27:14;18.48;47.92
65707;SHT31;52423;43.512;5.220;2023-08-08T06:29:40;18.66;47.68
65707;SHT31;52423;43.512;5.220;2023-08-08T06:32:06;18.74;47.49
65707;SHT31;52423;43.512;5.220;2023-08-08T06:34:31;18.77;47.45
65707;SHT31;52423;43.512;5.220;2023-08-08T06:36:57;18.84;47.67
65707;SHT31;52423;43.512;5.220;2023-08-08T06:39:22;19.04;46.72
65707;SHT31;52423;43.512;5.220;2023-08-08T06:41:48;19.04;46.50
65707;SHT31;52423;43.512;5.220;2023-08-08T06:44:13;19.21;46.26
65707;SHT31;52423;43.512;5.220;2023-08-08T06:46:39;19.30;46.12
65707;SHT31;52423;43.512;5.220;2023-08-08T06:49:04;19.45;45.74
65707;SHT31;52423;43.512;5.220;2023-08-08T06:51:32;19.48;45.78
65707;SHT31;52423;43.512;5.220;2023-08-08T06:53:57;19.48;45.52
65707;SHT31;52423;43.512;5.220;2023-08-08T06:56:23;19.65;45.44
65707;SHT31;52423;43.512;5.220;2023-08-08T06:58:48;19.86;44.88
65707;SHT31;52423;43.512;5.220;2023-08-08T07:01:14;19.65;45.53
65707;SHT31;52423;43.512;5.220;2023-08-08T07:03:39;19.57;45.89
65707;SHT31;52423;43.512;5.220;2023-08-08T07:06:05;19.58;45.54
65707;SHT31;52423;43.512;5.220;2023-08-08T07:08:31;19.69;45.46
65707;SHT31;52423;43.512;5.220;2023-08-08T07:10:58;19.78;44.73
65707;SHT31;52423;43.512;5.220;2023-08-08T07:13:24;19.85;44.56
65707;SHT31;52423;43.512;5.220;2023-08-08T07:15:49;20.02;44.66
65707;SHT31;52423;43.512;5.220;2023-08-08T07:18:15;20.12;43.52
65707;SHT31;52423;43.512;5.220;2023-08-08T07:20:40;20.13;44.57
65707;SHT31;52423;43.512;5.220;2023-08-08T07:23:06;20.22;43.60
65707;SHT31;52423;43.512;5.220;2023-08-08T07:25:31;20.26;44.32
65707;SHT31;52423;43.512;5.220;2023-08-08T07:27:57;20.30;43.48
65707;SHT31;52423;43.512;5.220;2023-08-08T07:30:22;20.41;43.36
65707;SHT31;52423;43.512;5.220;2023-08-08T07:32:48;20.34;43.10
65707;SHT31;52423;43.512;5.220;2023-08-08T07:35:13;20.44;43.23
65707;SHT31;52423;43.512;5.220;2023-08-08T07:37:40;21.14;42.72
65707;SHT31;52423;43.512;5.220;2023-08-08T07:40:18;21.39;42.10
65707;SHT31;52423;43.512;5.220;2023-08-08T07:42:45;21.47;42.53
65707;SHT31;52423;43.512;5.220;2023-08-08T07:45:11;21.16;42.50
65707;SHT31;52423;43.512;5.220;2023-08-08T07:47:36;21.06;42.37
65707;SHT31;52423;43.512;5.220;2023-08-08T07:50:02;21.42;42.18
65707;SHT31;52423;43.512;5.220;2023-08-08T07:52:27;21.38;41.61
65707;SHT31;52423;43.512;5.220;2023-08-08T07:54:53;21.31;42.35
65707;SHT31;52423;43.512;5.220;2023-08-08T07:57:18;21.64;42.62
65707;SHT31;52423;43.512;5.220;2023-08-08T07:59:44;22.14;41.35
65707;SHT31;52423;43.512;5.220;2023-08-08T08:02:09;22.65;40.06
65707;SHT31;52423;43.512;5.220;2023-08-08T08:04:34;22.38;40.44
65707;SHT31;52423;43.512;5.220;2023-08-08T08:07:00;22.42;40.09
65707;SHT31;52423;43.512;5.220;2023-08-08T08:09:26;22.21;39.59
65707;SHT31;52423;43.512;5.220;2023-08-08T08:11:51;22.24;40.52
65707;SHT31;52423;43.512;5.220;2023-08-08T08:14:17;22.31;40.11
65707;SHT31;52423;43.512;5.220;2023-08-08T08:16:44;22.48;40.18
65707;SHT31;52423;43.512;5.220;2023-08-08T08:19:10;22.40;40.20
65707;SHT31;52423;43.512;5.220;2023-08-08T08:21:35;22.35;39.48
65707;SHT31;52423;43.512;5.220;2023-08-08T08:24:01;22.52;39.59
65707;SHT31;52423;43.512;5.220;2023-08-08T08:26:27;22.64;38.64
65707;SHT31;52423;43.512;5.220;2023-08-08T08:28:53;22.61;39.05
65707;SHT31;52423;43.512;5.220;2023-08-08T08:31:18;23.05;39.64
65707;SHT31;52423;43.512;5.220;2023-08-08T08:33:43;22.86;43.22
65707;SHT31;52423;43.512;5.220;2023-08-08T08:36:09;23.12;42.71
65707;SHT31;52423;43.512;5.220;2023-08-08T08:38:34;23.17;39.30
65707;SHT31;52423;43.512;5.220;2023-08-08T08:41:02;23.17;39.88
65707;SHT31;52423;43.512;5.220;2023-08-08T08:43:28;23.28;38.77
65707;SHT31;52423;43.512;5.220;2023-08-08T08:45:54;23.43;38.59
65707;SHT31;52423;43.512;5.220;2023-08-08T08:48:21;23.50;37.44
65707;SHT31;52423;43.512;5.220;2023-08-08T08:50:48;23.54;38.02
65707;SHT31;52423;43.512;5.220;2023-08-08T08:53:15;23.55;37.88
65707;SHT31;52423;43.512;5.220;2023-08-08T08:55:41;23.73;37.31
65707;SHT31;52423;43.512;5.220;2023-08-08T08:58:06;23.85;36.70
65707;SHT31;52423;43.512;5.220;2023-08-08T09:00:33;23.84;37.02
65707;SHT31;52423;43.512;5.220;2023-08-08T09:02:59;23.82;36.92
65707;SHT31;52423;43.512;5.220;2023-08-08T09:05:25;24.02;36.58
65707;SHT31;52423;43.512;5.220;2023-08-08T09:07:51;24.12;35.35
65707;SHT31;52423;43.512;5.220;2023-08-08T09:10:17;24.05;36.00
65707;SHT31;52423;43.512;5.220;2023-08-08T09:12:44;24.21;35.71
65707;SHT31;52423;43.512;5.220;2023-08-08T09:15:09;24.37;36.75
65707;SHT31;52423;43.512;5.220;2023-08-08T09:17:36;24.46;36.34
65707;SHT31;52423;43.512;5.220;2023-08-08T09:20:02;24.49;36.76
65707;SHT31;52423;43.512;5.220;2023-08-08T09:22:29;24.46;36.69
65707;SHT31;52423;43.512;5.220;2023-08-08T09:24:54;24.70;36.39
65707;SHT31;52423;43.512;5.220;2023-08-08T09:27:20;24.91;35.79
65707;SHT31;52423;43.512;5.220;2023-08-08T09:29:46;24.74;36.01
65707;SHT31;52423;43.512;5.220;2023-08-08T09:32:12;24.79;34.99
65707;SHT31;52423;43.512;5.220;2023-08-08T09:34:43;24.64;36.17
65707;SHT31;52423;43.512;5.220;2023-08-08T09:37:09;24.84;35.40
65707;SHT31;52423;43.512;5.220;2023-08-08T09:39:36;24.97;35.88
65707;SHT31;52423;43.512;5.220;2023-08-08T09:42:02;24.91;35.45
65707;SHT31;52423;43.512;5.220;2023-08-08T09:44:29;24.98;35.54
65707;SHT31;52423;43.512;5.220;2023-08-08T09:46:56;25.41;35.25
65707;SHT31;52423;43.512;5.220;2023-08-08T09:49:22;25.42;34.39
65707;SHT31;52423;43.512;5.220;2023-08-08T09:51:51;25.34;34.62
65707;SHT31;52423;43.512;5.220;2023-08-08T09:54:16;25.30;34.39
65707;SHT31;52423;43.512;5.220;2023-08-08T09:56:42;25.45;34.33
65707;SHT31;52423;43.512;5.220;2023-08-08T09:59:08;25.57;33.83
65707;SHT31;52423;43.512;5.220;2023-08-08T10:01:34;25.48;33.81
65707;SHT31;52423;43.512;5.220;2023-08-08T10:04:00;25.68;33.80
65707;SHT31;52423;43.512;5.220;2023-08-08T10:06:27;25.95;32.46
65707;SHT31;52423;43.512;5.220;2023-08-08T10:08:53;26.02;32.51
65707;SHT31;52423;43.512;5.220;2023-08-08T10:11:18;26.17;32.39
65707;SHT31;52423;43.512;5.220;2023-08-08T10:13:49;25.90;32.65
65707;SHT31;52423;43.512;5.220;2023-08-08T10:16:16;26.40;32.00
65707;SHT31;52423;43.512;5.220;2023-08-08T10:18:42;26.33;30.90
65707;SHT31;52423;43.512;5.220;2023-08-08T10:21:08;26.48;31.93
65707;SHT31;52423;43.512;5.220;2023-08-08T10:23:37;26.30;31.18
65707;SHT31;52423;43.512;5.220;2023-08-08T10:26:03;26.17;31.72
65707;SHT31;52423;43.512;5.220;2023-08-08T10:28:28;26.45;31.44
65707;SHT31;52423;43.512;5.220;2023-08-08T10:30:59;26.64;31.71
65707;SHT31;52423;43.512;5.220;2023-08-08T10:33:26;26.96;29.63
65707;SHT31;52423;43.512;5.220;2023-08-08T10:38:25;26.82;29.96
65707;SHT31;52423;43.512;5.220;2023-08-08T10:40:59;26.91;28.69
65707;SHT31;52423;43.512;5.220;2023-08-08T10:43:28;27.06;29.47
65707;SHT31;52423;43.512;5.220;2023-08-08T10:46:03;27.09;29.71
65707;SHT31;52423;43.512;5.220;2023-08-08T10:48:29;27.16;29.43
65707;SHT31;52423;43.512;5.220;2023-08-08T10:50:58;27.22;29.52
65707;SHT31;52423;43.512;5.220;2023-08-08T10:53:28;27.54;28.20
65707;SHT31;52423;43.512;5.220;2023-08-08T10:55:59;27.60;28.97
65707;SHT31;52423;43.512;5.220;2023-08-08T10:58:38;27.57;29.93
65707;SHT31;52423;43.512;5.220;2023-08-08T11:01:04;27.76;27.58
65707;SHT31;52423;43.512;5.220;2023-08-08T11:03:38;27.70;27.25
65707;SHT31;52423;43.512;5.220;2023-08-08T11:06:06;27.94;27.68
65707;SHT31;52423;43.512;5.220;2023-08-08T11:08:31;27.71;27.80
65707;SHT31;52423;43.512;5.220;2023-08-08T11:10:57;27.82;27.00
65707;SHT31;52423;43.512;5.220;2023-08-08T11:13:23;27.82;28.03
65707;SHT31;52423;43.512;5.220;2023-08-08T11:15:49;27.83;27.32
65707;SHT31;52423;43.512;5.220;2023-08-08T11:18:14;27.84;28.52
65707;SHT31;52423;43.512;5.220;2023-08-08T11:20:40;28.07;28.06
65707;SHT31;52423;43.512;5.220;2023-08-08T11:23:05;28.11;28.51
65707;SHT31;52423;43.512;5.220;2023-08-08T11:25:35;27.91;28.33
65707;SHT31;52423;43.512;5.220;2023-08-08T11:28:01;28.21;28.59
65707;SHT31;52423;43.512;5.220;2023-08-08T11:30:33;28.14;27.08
65707;SHT31;52423;43.512;5.220;2023-08-08T11:32:59;28.48;27.52
65707;SHT31;52423;43.512;5.220;2023-08-08T11:35:25;28.69;27.35
65707;SHT31;52423;43.512;5.220;2023-08-08T11:37:53;28.83;27.36
65707;SHT31;52423;43.512;5.220;2023-08-08T11:40:20;28.65;28.09
65707;SHT31;52423;43.512;5.220;2023-08-08T11:42:47;28.82;26.93
65707;SHT31;52423;43.512;5.220;2023-08-08T11:45:15;28.89;26.49
65707;SHT31;52423;43.512;5.220;2023-08-08T11:47:41;28.73;27.25
65707;SHT31;52423;43.512;5.220;2023-08-08T11:50:09;28.92;26.89
65707;SHT31;52423;43.512;5.220;2023-08-08T11:52:36;29.02;26.84
65707;SHT31;52423;43.512;5.220;2023-08-08T11:55:05;28.80;27.09
65707;SHT31;52423;43.512;5.220;2023-08-08T11:57:33;29.04;26.31
65707;SHT31;52423;43.512;5.220;2023-08-08T12:00:00;29.09;25.96
65707;SHT31;52423;43.512;5.220;2023-08-08T12:02:27;29.02;25.78
65707;SHT31;52423;43.512;5.220;2023-08-08T12:04:52;29.20;26.16
65707;SHT31;52423;43.512;5.220;2023-08-08T12:07:18;29.22;27.00
65707;SHT31;52423;43.512;5.220;2023-08-08T12:09:47;29.19;25.92
65707;SHT31;52423;43.512;5.220;2023-08-08T12:12:13;29.06;25.70
65707;SHT31;52423;43.512;5.220;2023-08-08T12:14:39;29.31;25.34
65707;SHT31;52423;43.512;5.220;2023-08-08T12:17:06;29.34;25.30
65707;SHT31;52423;43.512;5.220;2023-08-08T12:19:32;29.43;24.91
65707;SHT31;52423;43.512;5.220;2023-08-08T12:21:57;29.63;24.26
65707;SHT31;52423;43.512;5.220;2023-08-08T12:24:23;29.80;24.32
65707;SHT31;52423;43.512;5.220;2023-08-08T12:26:48;29.82;24.33
65707;SHT31;52423;43.512;5.220;2023-08-08T12:29:13;29.72;24.77
65707;SHT31;52423;43.512;5.220;2023-08-08T12:31:39;29.54;23.99
65707;SHT31;52423;43.512;5.220;2023-08-08T12:34:05;29.71;22.80
65707;SHT31;52423;43.512;5.220;2023-08-08T12:36:31;29.92;22.91
65707;SHT31;52423;43.512;5.220;2023-08-08T12:38:56;29.71;21.52
65707;SHT31;52423;43.512;5.220;2023-08-08T12:41:22;29.60;22.94
65707;SHT31;52423;43.512;5.220;2023-08-08T12:43:48;29.75;23.67
65707;SHT31;52423;43.512;5.220;2023-08-08T12:46:15;29.92;23.13
65707;SHT31;52423;43.512;5.220;2023-08-08T12:48:40;30.04;23.41
65707;SHT31;52423;43.512;5.220;2023-08-08T12:51:05;30.02;22.84
65707;SHT31;52423;43.512;5.220;2023-08-08T12:53:34;30.01;23.15
65707;SHT31;52423;43.512;5.220;2023-08-08T12:56:00;30.06;23.08
65707;SHT31;52423;43.512;5.220;2023-08-08T12:58:25;29.95;22.47
65707;SHT31;52423;43.512;5.220;2023-08-08T13:00:51;30.01;23.11
65707;SHT31;52423;43.512;5.220;2023-08-08T13:03:16;30.06;22.57
65707;SHT31;52423;43.512;5.220;2023-08-08T13:05:41;30.26;21.77
65707;SHT31;52423;43.512;5.220;2023-08-08T13:08:07;30.47;20.08
65707;SHT31;52423;43.512;5.220;2023-08-08T13:10:32;29.95;21.48
65707;SHT31;52423;43.512;5.220;2023-08-08T13:12:58;29.97;20.89
65707;SHT31;52423;43.512;5.220;2023-08-08T13:15:23;30.06;21.58
65707;SHT31;52423;43.512;5.220;2023-08-08T13:17:48;30.33;20.37
65707;SHT31;52423;43.512;5.220;2023-08-08T13:20:14;30.32;21.15
65707;SHT31;52423;43.512;5.220;2023-08-08T13:22:39;30.33;22.66
65707;SHT31;52423;43.512;5.220;2023-08-08T13:25:07;30.93;21.78
65707;SHT31;52423;43.512;5.220;2023-08-08T13:27:33;30.76;21.81
65707;SHT31;52423;43.512;5.220;2023-08-08T13:29:58;30.88;20.29
65707;SHT31;52423;43.512;5.220;2023-08-08T13:32:24;30.36;17.24
65707;SHT31;52423;43.512;5.220;2023-08-08T13:34:49;30.53;18.66
65707;SHT31;52423;43.512;5.220;2023-08-08T13:37:15;30.84;21.60
65707;SHT31;52423;43.512;5.220;2023-08-08T13:39:41;30.97;22.16
65707;SHT31;52423;43.512;5.220;2023-08-08T13:42:08;31.00;22.24
65707;SHT31;52423;43.512;5.220;2023-08-08T13:44:34;30.59;23.84
65707;SHT31;52423;43.512;5.220;2023-08-08T13:46:59;30.69;21.85
65707;SHT31;52423;43.512;5.220;2023-08-08T13:49:24;30.74;20.28
65707;SHT31;52423;43.512;5.220;2023-08-08T13:51:54;30.55;22.68
65707;SHT31;52423;43.512;5.220;2023-08-08T13:54:19;30.83;23.14
65707;SHT31;52423;43.512;5.220;2023-08-08T13:56:45;30.21;28.59
65707;SHT31;52423;43.512;5.220;2023-08-08T13:59:10;29.89;29.99
65707;SHT31;52423;43.512;5.220;2023-08-08T14:01:36;29.89;31.00
65707;SHT31;52423;43.512;5.220;2023-08-08T14:04:02;29.70;31.17
65707;SHT31;52423;43.512;5.220;2023-08-08T14:06:28;29.57;31.54
65707;SHT31;52423;43.512;5.220;2023-08-08T14:08:54;29.40;31.51
65707;SHT31;52423;43.512;5.220;2023-08-08T14:11:19;29.35;31.21
65707;SHT31;52423;43.512;5.220;2023-08-08T14:13:45;29.29;30.96
65707;SHT31;52423;43.512;5.220;2023-08-08T14:16:10;29.27;31.90
65707;SHT31;52423;43.512;5.220;2023-08-08T14:18:36;29.19;32.64
65707;SHT31;52423;43.512;5.220;2023-08-08T14:21:01;29.10;32.30
65707;SHT31;52423;43.512;5.220;2023-08-08T14:23:29;29.04;32.82
65707;SHT31;52423;43.512;5.220;2023-08-08T14:25:55;28.92;32.60
65707;SHT31;52423;43.512;5.220;2023-08-08T14:28:20;28.83;34.29
65707;SHT31;52423;43.512;5.220;2023-08-08T14:30:46;28.78;34.81
65707;SHT31;52423;43.512;5.220;2023-08-08T14:33:15;28.82;34.09
65707;SHT31;52423;43.512;5.220;2023-08-08T14:35:41;28.79;33.90
65707;SHT31;52423;43.512;5.220;2023-08-08T14:38:07;28.79;31.86
65707;SHT31;52423;43.512;5.220;2023-08-08T14:40:32;28.71;31.90
65707;SHT31;52423;43.512;5.220;2023-08-08T14:43:00;28.76;32.13
65707;SHT31;52423;43.512;5.220;2023-08-08T14:45:26;28.88;31.57
65707;SHT31;52423;43.512;5.220;2023-08-08T14:47:51;29.02;31.57
65707;SHT31;52423;43.512;5.220;2023-08-08T14:50:17;28.93;30.35
65707;SHT31;52423;43.512;5.220;2023-08-08T14:52:42;28.56;31.22
65707;SHT31;52423;43.512;5.220;2023-08-08T14:55:08;28.63;32.10
65707;SHT31;52423;43.512;5.220;2023-08-08T14:57:33;28.41;31.97
65707;SHT31;52423;43.512;5.220;2023-08-08T14:59:59;28.18;32.54
65707;SHT31;52423;43.512;5.220;2023-08-08T15:02:27;28.24;33.18
65707;SHT31;52423;43.512;5.220;2023-08-08T15:04:53;28.24;32.73
65707;SHT31;52423;43.512;5.220;2023-08-08T15:07:18;28.03;33.51
65707;SHT31;52423;43.512;5.220;2023-08-08T15:09:44;28.18;33.02
65707;SHT31;52423;43.512;5.220;2023-08-08T15:12:09;28.04;32.55
65707;SHT31;52423;43.512;5.220;2023-08-08T15:14:35;27.93;32.26
65707;SHT31;52423;43.512;5.220;2023-08-08T15:17:00;27.82;31.87
65707;SHT31;52423;43.512;5.220;2023-08-08T15:19:26;28.10;33.62
65707;SHT31;52423;43.512;5.220;2023-08-08T15:21:52;27.91;33.80
65707;SHT31;52423;43.512;5.220;2023-08-08T15:24:17;28.03;34.10
65707;SHT31;52423;43.512;5.220;2023-08-08T15:26:43;27.93;33.71